Time;durP1;ratioP1;P1;durP2;ratioP2;P2;SDS_P1;SDS_P2;PMS_P1;PMS_P2;Temp;Humidity;BMP_temperature;BMP_pressure;BME280_temperature;BME280_humidity;BME280_pressure;Samples;Min_cycle;Max_cycle;Signal;HPM_P1;HPM_P2
2020/12/19 00:02:00;;;;;;;61.92;24.17;;;0.40;99.90;;;;;;5056111;28;20416;-59
2020/12/19 00:04:25;;;;;;;74.10;22.70;;;0.40;99.90;;;;;;5058620;28;20020;-59
2020/12/19 00:06:51;;;;;;;78.93;27.77;;;0.40;99.90;;;;;;5045229;28;20056;-60
2020/12/19 00:09:16;;;;;;;47.40;20.42;;;0.40;99.90;;;;;;5058727;28;20111;-59
2020/12/19 00:11:42;;;;;;;55.40;19.13;;;0.40;99.90;;;;;;5050915;28;20393;-59
2020/12/19 00:14:08;;;;;;;44.05;17.52;;;0.40;99.90;;;;;;5057404;28;20071;-60
2020/12/19 00:16:33;;;;;;;69.60;23.83;;;0.40;99.90;;;;;;5050121;28;20041;-59
2020/12/19 00:18:59;;;;;;;71.30;23.77;;;0.40;99.90;;;;;;5040400;28;20546;-60
2020/12/19 00:21:32;;;;;;;59.55;21.98;;;0.40;99.90;;;;;;5051661;28;20170;-59
2020/12/19 00:23:58;;;;;;;71.40;27.50;;;0.30;99.90;;;;;;5049115;28;20029;-59
2020/12/19 00:26:31;;;;;;;64.13;22.52;;;0.40;99.90;;;;;;5054610;28;20523;-59
2020/12/19 00:28:57;;;;;;;74.78;26.95;;;0.40;99.90;;;;;;5054438;28;20020;-59
2020/12/19 00:31:26;;;;;;;77.90;29.77;;;0.40;99.90;;;;;;5052843;28;20056;-59
2020/12/19 00:33:52;;;;;;;61.22;23.02;;;0.40;99.90;;;;;;5045234;28;20113;-59
2020/12/19 00:36:17;;;;;;;75.68;27.60;;;0.40;99.90;;;;;;5050700;28;20108;-59
2020/12/19 00:38:43;;;;;;;75.18;25.17;;;0.40;99.90;;;;;;5055509;28;20029;-59
2020/12/19 00:41:08;;;;;;;62.65;22.98;;;0.40;99.90;;;;;;5053128;28;20124;-59
2020/12/19 00:43:35;;;;;;;65.88;22.58;;;0.40;99.90;;;;;;5068495;28;20017;-60
2020/12/19 00:46:01;;;;;;;58.22;20.48;;;0.40;99.90;;;;;;5042997;28;20028;-59
2020/12/19 00:48:26;;;;;;;63.85;23.77;;;0.30;99.90;;;;;;5053428;28;20075;-60
2020/12/19 00:50:52;;;;;;;51.92;20.38;;;0.30;99.90;;;;;;5056065;28;20540;-60
2020/12/19 00:53:17;;;;;;;45.38;16.75;;;0.30;99.90;;;;;;5056245;28;20071;-59
2020/12/19 00:55:43;;;;;;;56.50;21.40;;;0.20;99.90;;;;;;5053880;28;20063;-59
2020/12/19 00:58:09;;;;;;;61.60;21.35;;;0.30;99.90;;;;;;5057527;28;20552;-59
2020/12/19 01:00:34;;;;;;;52.92;20.30;;;0.20;99.90;;;;;;5057653;28;20028;-59
2020/12/19 01:03:00;;;;;;;61.42;22.08;;;0.20;99.90;;;;;;5057512;28;20033;-59
2020/12/19 01:05:25;;;;;;;66.38;21.65;;;0.20;99.90;;;;;;5056681;28;20029;-59
2020/12/19 01:07:51;;;;;;;72.38;23.30;;;0.20;99.90;;;;;;5060142;28;20181;-59
2020/12/19 01:10:16;;;;;;;60.92;21.80;;;0.20;99.90;;;;;;5061906;28;20031;-59
2020/12/19 01:12:41;;;;;;;72.00;24.00;;;0.20;99.90;;;;;;5055750;28;20105;-59
2020/12/19 01:15:08;;;;;;;61.10;21.10;;;0.20;99.90;;;;;;5053485;28;20032;-59
2020/12/19 01:17:33;;;;;;;62.13;21.75;;;0.20;99.90;;;;;;5053360;28;20393;-60
2020/12/19 01:19:59;;;;;;;61.80;20.90;;;0.20;99.90;;;;;;5053460;28;20037;-60
2020/12/19 01:22:25;;;;;;;52.30;17.90;;;0.20;99.90;;;;;;5059374;28;20036;-60
2020/12/19 01:24:51;;;;;;;58.60;19.42;;;0.20;99.90;;;;;;5058305;28;20029;-60
2020/12/19 01:27:16;;;;;;;65.80;21.67;;;0.10;99.90;;;;;;5053592;28;20032;-60
2020/12/19 01:29:42;;;;;;;70.10;22.77;;;0.10;99.90;;;;;;5062205;28;20051;-59
2020/12/19 01:32:07;;;;;;;69.82;24.77;;;0.10;99.90;;;;;;5058716;28;20047;-59
2020/12/19 01:34:33;;;;;;;68.78;23.80;;;0.10;99.90;;;;;;5062196;28;20040;-59
2020/12/19 01:36:58;;;;;;;62.70;22.13;;;0.10;99.90;;;;;;5055871;28;20115;-59
2020/12/19 01:39:25;;;;;;;73.07;25.88;;;0.10;99.90;;;;;;5061825;28;20124;-59
2020/12/19 01:41:52;;;;;;;65.03;20.90;;;0.10;99.90;;;;;;5044558;28;20122;-60
2020/12/19 01:44:18;;;;;;;56.05;19.50;;;0.10;99.90;;;;;;5057567;28;20120;-60
2020/12/19 01:46:55;;;;;;;81.63;24.95;;;0.10;99.90;;;;;;5052772;28;20267;-60
2020/12/19 01:49:26;;;;;;;85.28;27.65;;;0.10;99.90;;;;;;5053149;28;20210;-60
2020/12/19 01:51:56;;;;;;;79.38;27.55;;;0.20;99.90;;;;;;5055472;28;20061;-60
2020/12/19 01:54:22;;;;;;;63.45;21.13;;;0.20;99.90;;;;;;5053870;28;20029;-59
2020/12/19 01:56:54;;;;;;;81.65;26.17;;;0.20;99.90;;;;;;5054193;28;20037;-60
2020/12/19 01:59:21;;;;;;;70.28;22.52;;;0.20;99.90;;;;;;5058902;28;20033;-59
2020/12/19 02:01:49;;;;;;;69.80;21.75;;;0.20;99.90;;;;;;5059772;28;20028;-60
2020/12/19 02:04:16;;;;;;;70.63;24.27;;;0.10;99.90;;;;;;5056741;28;20033;-60
2020/12/19 02:06:47;;;;;;;75.63;24.30;;;0.20;99.90;;;;;;5052301;28;20025;-59
2020/12/19 02:09:14;;;;;;;76.47;26.42;;;0.10;99.90;;;;;;5059870;28;20025;-59
2020/12/19 02:11:42;;;;;;;54.33;20.13;;;0.20;99.90;;;;;;5059115;28;20052;-59
2020/12/19 02:14:08;;;;;;;75.28;25.23;;;0.10;99.90;;;;;;5052137;28;20132;-60
2020/12/19 02:16:34;;;;;;;72.55;22.70;;;0.10;99.90;;;;;;5058690;28;20400;-59
2020/12/19 02:19:00;;;;;;;64.35;21.95;;;0.10;99.90;;;;;;5054099;28;20558;-59
2020/12/19 02:21:26;;;;;;;73.10;22.77;;;0.10;99.90;;;;;;5053976;28;20151;-60
2020/12/19 02:23:51;;;;;;;74.80;26.92;;;0.10;99.90;;;;;;5054787;28;20131;-59
2020/12/19 02:26:17;;;;;;;72.53;21.75;;;0.10;99.90;;;;;;5051516;28;20110;-60
2020/12/19 02:28:42;;;;;;;66.25;21.10;;;0.10;99.90;;;;;;5057802;28;20033;-59
2020/12/19 02:31:08;;;;;;;97.55;29.27;;;0.00;99.90;;;;;;5055875;28;20029;-60
2020/12/19 02:33:33;;;;;;;94.90;28.42;;;0.10;99.90;;;;;;5053249;28;20431;-60
2020/12/19 02:35:59;;;;;;;63.95;18.17;;;0.10;99.90;;;;;;5053273;28;20028;-59
2020/12/19 02:38:24;;;;;;;65.18;21.15;;;0.00;99.90;;;;;;5061778;28;20107;-59
2020/12/19 02:40:50;;;;;;;59.17;18.75;;;-0.10;99.90;;;;;;5058181;28;20033;-59
2020/12/19 02:43:15;;;;;;;76.43;21.73;;;-0.10;99.90;;;;;;5058012;28;20127;-60
2020/12/19 02:45:41;;;;;;;70.00;20.15;;;-0.10;99.90;;;;;;5057050;28;20124;-59
2020/12/19 02:48:06;;;;;;;67.22;19.67;;;-0.10;99.90;;;;;;5059515;28;20032;-59
2020/12/19 02:50:31;;;;;;;66.88;22.67;;;-0.10;99.90;;;;;;5059953;28;20123;-59
2020/12/19 02:52:57;;;;;;;87.13;25.88;;;-0.10;99.90;;;;;;5042426;28;20374;-60
2020/12/19 02:55:22;;;;;;;75.15;25.25;;;-0.20;99.90;;;;;;5057115;28;20111;-59
2020/12/19 02:57:48;;;;;;;79.25;24.20;;;-0.20;99.90;;;;;;5056155;28;20058;-61
2020/12/19 03:00:13;;;;;;;76.22;24.90;;;-0.20;99.90;;;;;;5056714;28;20119;-59
2020/12/19 03:02:39;;;;;;;64.10;22.40;;;-0.10;99.90;;;;;;5059475;28;20066;-59
2020/12/19 03:05:04;;;;;;;81.32;25.38;;;-0.10;99.90;;;;;;5044908;28;20444;-59
2020/12/19 03:07:30;;;;;;;97.70;28.65;;;-0.20;99.90;;;;;;5056300;28;20021;-60
2020/12/19 03:09:55;;;;;;;83.10;26.42;;;-0.10;99.90;;;;;;5049549;28;20044;-60
2020/12/19 03:12:21;;;;;;;80.07;25.23;;;-0.10;99.90;;;;;;5039896;28;20040;-60
2020/12/19 03:14:46;;;;;;;92.78;27.90;;;-0.10;99.90;;;;;;5058486;28;20033;-59
2020/12/19 03:17:12;;;;;;;80.93;25.10;;;-0.10;99.90;;;;;;5051484;28;20550;-59
2020/12/19 03:19:37;;;;;;;115.18;33.75;;;-0.10;99.90;;;;;;5055147;28;20062;-60
2020/12/19 03:22:03;;;;;;;62.85;21.40;;;-0.10;99.90;;;;;;5051463;28;20024;-61
2020/12/19 03:24:28;;;;;;;73.13;24.65;;;-0.10;99.90;;;;;;5056579;28;20025;-59
2020/12/19 03:26:54;;;;;;;100.03;29.42;;;-0.20;99.90;;;;;;5056839;28;20115;-59
2020/12/19 03:29:19;;;;;;;90.25;26.73;;;-0.10;99.90;;;;;;5057152;28;20094;-60
2020/12/19 03:31:44;;;;;;;100.38;25.98;;;-0.20;99.90;;;;;;5055229;28;20108;-60
2020/12/19 03:34:10;;;;;;;93.28;27.55;;;-0.20;99.90;;;;;;5070830;28;20603;-60
2020/12/19 03:36:35;;;;;;;75.25;23.77;;;-0.20;99.90;;;;;;5057409;28;20043;-60
2020/12/19 03:39:01;;;;;;;67.65;19.73;;;-0.20;99.90;;;;;;5052814;28;20125;-59
2020/12/19 03:41:26;;;;;;;79.47;22.50;;;-0.30;99.90;;;;;;5053973;28;20335;-60
2020/12/19 03:43:52;;;;;;;49.03;16.25;;;-0.30;99.90;;;;;;5052046;28;20098;-60
2020/12/19 03:46:17;;;;;;;70.55;22.35;;;-0.40;99.90;;;;;;5051782;28;20032;-59
2020/12/19 03:48:43;;;;;;;76.15;21.20;;;-0.40;99.90;;;;;;5054162;28;20123;-59
2020/12/19 03:51:09;;;;;;;84.93;24.27;;;-0.30;99.90;;;;;;5056269;28;20045;-59
2020/12/19 03:53:35;;;;;;;76.50;25.35;;;-0.40;99.90;;;;;;5056285;28;20412;-59
2020/12/19 03:56:00;;;;;;;83.80;24.30;;;-0.30;99.90;;;;;;5055080;28;20059;-60
2020/12/19 03:58:26;;;;;;;76.35;20.75;;;-0.30;99.90;;;;;;5056130;28;20120;-59
2020/12/19 04:00:51;;;;;;;97.80;26.42;;;-0.30;99.90;;;;;;5055626;28;20033;-60
2020/12/19 04:03:17;;;;;;;78.45;23.92;;;-0.30;99.90;;;;;;5052499;28;20036;-60
2020/12/19 04:05:42;;;;;;;71.10;22.52;;;-0.30;99.90;;;;;;5053606;28;20064;-59
2020/12/19 04:08:08;;;;;;;101.13;27.38;;;-0.30;99.90;;;;;;5051439;28;20343;-59
2020/12/19 04:10:33;;;;;;;94.90;29.38;;;-0.30;99.90;;;;;;5057296;28;20033;-59
2020/12/19 04:12:59;;;;;;;69.78;20.98;;;-0.30;99.90;;;;;;5047458;28;20025;-59
2020/12/19 04:15:24;;;;;;;89.85;26.30;;;-0.30;99.90;;;;;;5054267;28;20029;-59
2020/12/19 04:17:51;;;;;;;90.82;27.83;;;-0.30;99.90;;;;;;5051340;28;20456;-59
2020/12/19 04:20:17;;;;;;;90.47;25.70;;;-0.30;99.90;;;;;;5060257;28;20032;-60
2020/12/19 04:22:43;;;;;;;109.53;29.48;;;-0.30;99.90;;;;;;5056344;28;20029;-59
2020/12/19 04:25:13;;;;;;;81.28;24.48;;;-0.20;99.90;;;;;;5065726;28;20440;-59
2020/12/19 04:27:39;;;;;;;72.72;22.25;;;-0.20;99.90;;;;;;5060915;28;20058;-60
2020/12/19 04:30:06;;;;;;;82.22;23.23;;;-0.20;99.90;;;;;;5055084;28;20060;-60
2020/12/19 04:32:32;;;;;;;78.07;24.02;;;-0.20;99.90;;;;;;5054773;28;20029;-59
2020/12/19 04:34:57;;;;;;;87.60;24.45;;;-0.20;99.90;;;;;;5060562;28;20377;-59
2020/12/19 04:37:24;;;;;;;92.28;25.85;;;-0.30;99.90;;;;;;5060302;28;20385;-60
2020/12/19 04:39:49;;;;;;;75.75;22.02;;;-0.20;99.90;;;;;;5053979;28;20067;-59
2020/12/19 04:42:15;;;;;;;86.65;23.58;;;-0.20;99.90;;;;;;5054267;28;20477;-60
2020/12/19 04:44:41;;;;;;;91.72;27.38;;;-0.30;99.90;;;;;;5061126;28;20420;-59
2020/12/19 04:47:07;;;;;;;92.90;22.20;;;-0.20;99.90;;;;;;5036650;28;20098;-60
2020/12/19 04:49:34;;;;;;;98.35;27.15;;;-0.20;99.90;;;;;;5059073;28;20045;-59
2020/12/19 04:52:01;;;;;;;80.03;24.08;;;-0.30;99.90;;;;;;5054940;28;22982;-59
2020/12/19 04:54:26;;;;;;;73.95;21.85;;;-0.30;99.90;;;;;;5052217;28;20037;-59
2020/12/19 04:56:55;;;;;;;63.08;19.63;;;-0.30;99.90;;;;;;5060751;28;20040;-59
2020/12/19 04:59:20;;;;;;;64.78;18.63;;;-0.30;99.90;;;;;;5058156;28;20101;-59
2020/12/19 05:01:46;;;;;;;63.78;18.00;;;-0.40;99.90;;;;;;5058104;28;20025;-60
2020/12/19 05:04:15;;;;;;;62.13;17.77;;;-0.40;99.90;;;;;;5057835;28;20026;-59
2020/12/19 05:06:41;;;;;;;61.40;16.40;;;-0.50;99.90;;;;;;5047251;28;20090;-59
2020/12/19 05:09:07;;;;;;;52.53;17.73;;;-0.50;99.90;;;;;;5058068;28;20021;-59
2020/12/19 05:11:32;;;;;;;63.80;17.73;;;-0.50;99.90;;;;;;5049377;28;20025;-59
2020/12/19 05:13:58;;;;;;;65.95;19.55;;;-0.50;99.90;;;;;;5054450;28;20070;-59
2020/12/19 05:16:23;;;;;;;71.05;20.63;;;-0.50;99.90;;;;;;5056648;28;20037;-60
2020/12/19 05:18:49;;;;;;;53.15;16.20;;;-0.50;99.90;;;;;;5074277;28;20017;-59
2020/12/19 05:21:15;;;;;;;55.50;15.55;;;-0.50;99.90;;;;;;5056432;28;20037;-60
2020/12/19 05:23:42;;;;;;;54.55;17.38;;;-0.50;99.90;;;;;;5058038;28;20035;-59
2020/12/19 05:26:12;;;;;;;46.22;12.90;;;-0.50;99.90;;;;;;5057375;28;20032;-60
2020/12/19 05:28:41;;;;;;;71.80;20.27;;;-0.50;99.90;;;;;;5046852;28;20085;-59
2020/12/19 05:31:08;;;;;;;59.92;17.95;;;-0.50;99.90;;;;;;5055163;28;20064;-59
2020/12/19 05:33:35;;;;;;;73.90;20.45;;;-0.60;99.90;;;;;;5054063;28;20025;-60
2020/12/19 05:36:02;;;;;;;75.60;17.95;;;-0.60;99.90;;;;;;5053917;28;20033;-59
2020/12/19 05:38:29;;;;;;;69.60;19.65;;;-0.60;99.90;;;;;;5059172;28;20036;-59
2020/12/19 05:40:55;;;;;;;67.35;19.00;;;-0.60;99.90;;;;;;5057461;28;20037;-60
2020/12/19 05:43:20;;;;;;;68.43;19.63;;;-0.60;99.90;;;;;;5063650;28;20499;-60
2020/12/19 05:45:46;;;;;;;69.05;18.85;;;-0.60;99.90;;;;;;5063875;28;20033;-59
2020/12/19 05:48:11;;;;;;;60.25;16.50;;;-0.60;99.90;;;;;;5075478;28;20021;-59
2020/12/19 05:50:37;;;;;;;70.70;18.73;;;-0.60;99.90;;;;;;5066729;28;20075;-59
2020/12/19 05:53:03;;;;;;;87.88;24.55;;;-0.70;99.90;;;;;;5052549;28;20543;-60
2020/12/19 05:55:28;;;;;;;66.72;20.10;;;-0.60;99.90;;;;;;5057775;28;20028;-59
2020/12/19 05:57:57;;;;;;;57.58;18.65;;;-0.60;99.90;;;;;;5063943;28;20101;-59
2020/12/19 06:00:23;;;;;;;62.22;16.13;;;-0.60;99.90;;;;;;5059051;28;20059;-59
2020/12/19 06:02:50;;;;;;;62.65;15.30;;;-0.70;99.90;;;;;;5034567;28;20600;-59
2020/12/19 06:05:16;;;;;;;70.47;20.25;;;-0.70;99.90;;;;;;5057955;28;20020;-59
2020/12/19 06:07:47;;;;;;;68.00;18.63;;;-0.70;99.90;;;;;;5057695;28;20033;-59
2020/12/19 06:10:15;;;;;;;55.35;15.48;;;-0.60;99.90;;;;;;5053255;28;20025;-59
2020/12/19 06:12:51;;;;;;;54.40;16.55;;;-0.60;99.90;;;;;;5056183;28;20390;-60
2020/12/19 06:15:42;;;;;;;66.32;18.73;;;-0.60;99.90;;;;;;5073096;28;20063;-59
2020/12/19 06:18:43;;;;;;;59.25;17.80;;;-0.60;99.90;;;;;;5061326;28;20392;-60
2020/12/19 06:21:09;;;;;;;74.30;18.35;;;-0.60;99.90;;;;;;5028775;28;20123;-60
2020/12/19 06:23:35;;;;;;;58.83;17.38;;;-0.60;99.90;;;;;;5059586;28;20108;-59
2020/12/19 06:26:02;;;;;;;96.03;26.20;;;-0.60;99.90;;;;;;5056756;28;20059;-59
2020/12/19 06:28:43;;;;;;;59.22;17.58;;;-0.60;99.90;;;;;;5048740;28;20032;-60
2020/12/19 06:31:14;;;;;;;67.75;18.05;;;-0.60;99.90;;;;;;5052502;28;20917;-60
2020/12/19 06:33:46;;;;;;;67.03;19.65;;;-0.60;99.90;;;;;;5055585;28;20036;-59
2020/12/19 06:36:25;;;;;;;97.40;22.02;;;-0.60;99.90;;;;;;5058778;28;20351;-59
2020/12/19 06:39:07;;;;;;;95.55;27.23;;;-0.60;99.90;;;;;;5059184;28;20500;-60
2020/12/19 06:41:42;;;;;;;86.97;20.98;;;-0.60;99.90;;;;;;5053336;28;20036;-59
2020/12/19 06:44:23;;;;;;;72.90;18.77;;;-0.50;99.90;;;;;;5053128;28;20037;-59
2020/12/19 06:46:48;;;;;;;69.57;16.90;;;-0.50;99.90;;;;;;5056558;28;20047;-59
2020/12/19 06:49:23;;;;;;;99.78;28.33;;;-0.60;99.90;;;;;;5055458;28;20428;-60
2020/12/19 06:52:11;;;;;;;80.70;20.02;;;-0.60;99.90;;;;;;5055788;28;20021;-59
2020/12/19 06:54:42;;;;;;;82.28;24.23;;;-0.60;99.90;;;;;;5044690;28;20033;-59
2020/12/19 06:57:23;;;;;;;65.57;15.85;;;-0.50;99.90;;;;;;5054781;28;20046;-59
2020/12/19 06:59:48;;;;;;;94.40;26.17;;;-0.60;99.90;;;;;;5055229;28;20043;-60
2020/12/19 07:02:22;;;;;;;74.88;18.77;;;-0.60;99.90;;;;;;5051678;28;20464;-60
2020/12/19 07:04:49;;;;;;;54.38;14.88;;;-0.60;99.90;;;;;;5053798;28;20025;-59
2020/12/19 07:07:25;;;;;;;66.15;17.27;;;-0.50;99.90;;;;;;5058785;28;20344;-60
2020/12/19 07:09:55;;;;;;;56.53;16.73;;;-0.60;99.90;;;;;;5053534;28;20037;-59
2020/12/19 07:12:39;;;;;;;70.72;20.70;;;-0.60;99.90;;;;;;5052084;28;20112;-59
2020/12/19 07:15:10;;;;;;;100.63;25.63;;;-0.50;99.90;;;;;;5059121;28;20052;-59
2020/12/19 07:17:47;;;;;;;75.28;20.60;;;-0.40;99.90;;;;;;5058463;28;20389;-60
2020/12/19 07:20:13;;;;;;;98.60;27.15;;;-0.40;99.90;;;;;;5058655;28;20044;-60
2020/12/19 07:22:40;;;;;;;75.75;19.45;;;-0.40;99.90;;;;;;5052510;28;20024;-59
2020/12/19 07:25:05;;;;;;;71.50;21.35;;;-0.40;99.90;;;;;;5051238;28;20033;-59
2020/12/19 07:27:31;;;;;;;50.90;17.65;;;-0.40;99.90;;;;;;5057002;28;20029;-59
2020/12/19 07:29:58;;;;;;;79.03;19.38;;;-0.30;99.90;;;;;;5057689;28;20547;-59
2020/12/19 07:32:24;;;;;;;77.47;17.05;;;-0.30;99.90;;;;;;5052212;28;20482;-59
2020/12/19 07:34:57;;;;;;;80.07;19.52;;;-0.30;99.90;;;;;;5057219;28;20037;-59
2020/12/19 07:37:23;;;;;;;54.08;16.73;;;-0.30;99.90;;;;;;5051562;28;20025;-59
2020/12/19 07:39:49;;;;;;;57.88;16.67;;;-0.30;99.90;;;;;;5054477;28;20059;-59
2020/12/19 07:42:15;;;;;;;76.28;18.00;;;-0.20;99.90;;;;;;5061133;28;20060;-59
2020/12/19 07:44:41;;;;;;;76.10;17.85;;;-0.20;99.90;;;;;;5062720;28;20031;-60
2020/12/19 07:47:11;;;;;;;58.72;16.00;;;-0.20;99.90;;;;;;5056442;28;20031;-59
2020/12/19 07:49:46;;;;;;;49.47;14.38;;;-0.20;99.90;;;;;;5052391;28;20512;-59
2020/12/19 07:52:25;;;;;;;57.33;15.27;;;-0.20;99.90;;;;;;5055377;28;20051;-59
2020/12/19 07:55:01;;;;;;;46.30;13.88;;;-0.10;99.90;;;;;;5047690;28;20051;-60
2020/12/19 07:57:28;;;;;;;;;;;-0.10;99.90;;;;;;5055020;28;20040;-60
2020/12/19 07:59:54;;;;;;;69.57;16.67;;;-0.10;99.90;;;;;;5059212;28;19916;-59
2020/12/19 08:02:21;;;;;;;67.53;16.52;;;0.00;99.90;;;;;;5053464;28;20186;-59
2020/12/19 08:04:57;;;;;;;70.13;21.38;;;0.00;99.90;;;;;;5049178;28;20115;-60
2020/12/19 08:07:25;;;;;;;80.47;22.42;;;0.00;99.90;;;;;;5058825;28;20013;-60
2020/12/19 08:10:02;;;;;;;64.25;20.98;;;0.10;99.90;;;;;;5045156;28;20029;-60
2020/12/19 08:12:30;;;;;;;87.88;28.23;;;0.20;99.90;;;;;;5060583;28;20215;-59
2020/12/19 08:14:56;;;;;;;80.38;25.88;;;0.30;99.90;;;;;;5055161;28;20160;-60
2020/12/19 08:17:23;;;;;;;82.35;26.85;;;0.50;99.90;;;;;;5065570;28;20033;-60
2020/12/19 08:19:52;;;;;;;82.53;27.40;;;0.60;99.90;;;;;;5062931;28;20044;-59
2020/12/19 08:22:19;;;;;;;56.38;19.67;;;0.80;99.90;;;;;;5054135;28;20055;-59
2020/12/19 08:24:49;;;;;;;82.35;26.70;;;0.90;99.90;;;;;;5055701;28;20074;-60
2020/12/19 08:27:35;;;;;;;80.10;24.30;;;1.00;99.90;;;;;;5056318;28;20044;-60
2020/12/19 08:30:00;;;;;;;86.22;27.60;;;1.10;99.90;;;;;;5062765;28;20029;-59
2020/12/19 08:32:29;;;;;;;87.13;29.17;;;1.30;99.90;;;;;;5057817;28;20032;-59
2020/12/19 08:34:54;;;;;;;78.72;25.17;;;1.30;99.90;;;;;;5065886;28;20024;-59
2020/12/19 08:37:20;;;;;;;61.58;22.92;;;1.50;99.90;;;;;;5047974;28;20033;-60
2020/12/19 08:40:06;;;;;;;76.05;27.73;;;1.60;99.90;;;;;;5055016;28;20033;-59
2020/12/19 08:42:34;;;;;;;61.50;24.95;;;1.80;99.90;;;;;;5055828;28;20054;-59
2020/12/19 08:45:13;;;;;;;59.03;22.67;;;1.90;99.90;;;;;;5065732;28;20374;-60
2020/12/19 08:47:40;;;;;;;63.33;24.75;;;2.00;99.90;;;;;;5046906;28;20031;-59
2020/12/19 08:50:06;;;;;;;77.55;29.20;;;2.20;99.90;;;;;;5063898;28;20463;-60
2020/12/19 08:52:31;;;;;;;63.83;22.27;;;2.30;99.90;;;;;;5062295;28;20104;-59
2020/12/19 08:54:58;;;;;;;54.92;23.10;;;2.40;99.90;;;;;;5057106;28;20041;-59
2020/12/19 08:57:33;;;;;;;52.00;21.48;;;2.60;99.90;;;;;;5055369;28;20057;-61
2020/12/19 09:00:15;;;;;;;40.03;14.88;;;2.80;99.90;;;;;;5044407;28;20404;-60
2020/12/19 09:02:46;;;;;;;47.80;18.13;;;2.90;99.90;;;;;;5063089;28;20792;-60
2020/12/19 09:05:12;;;;;;;49.05;20.70;;;3.00;99.90;;;;;;5044813;28;20106;-61
2020/12/19 09:07:38;;;;;;;45.95;20.88;;;3.10;99.90;;;;;;5048737;28;20060;-60
2020/12/19 09:10:26;;;;;;;49.13;19.17;;;3.20;99.90;;;;;;5043545;28;20028;-60
2020/12/19 09:13:10;;;;;;;42.50;20.27;;;3.30;99.90;;;;;;5062118;28;20542;-60
2020/12/19 09:15:37;;;;;;;44.13;20.65;;;3.30;99.90;;;;;;5062135;28;20547;-60
2020/12/19 09:18:23;;;;;;;42.63;19.63;;;3.30;99.90;;;;;;5063376;28;20029;-61
2020/12/19 09:20:54;;;;;;;40.22;17.70;;;3.40;99.90;;;;;;5059252;28;20082;-60
2020/12/19 09:23:22;;;;;;;44.88;20.52;;;3.40;99.90;;;;;;5061244;28;20029;-61
2020/12/19 09:25:48;;;;;;;35.10;15.98;;;3.50;99.90;;;;;;5056271;28;20493;-62
2020/12/19 09:28:14;;;;;;;33.38;16.40;;;3.50;99.90;;;;;;5048513;28;20020;-61
2020/12/19 09:30:40;;;;;;;44.33;20.42;;;3.50;99.90;;;;;;5055656;28;20432;-60
2020/12/19 09:33:06;;;;;;;42.25;19.67;;;3.60;99.90;;;;;;5057928;28;20096;-61
2020/12/19 09:35:32;;;;;;;44.30;18.13;;;3.60;99.90;;;;;;5055736;28;20025;-61
2020/12/19 09:37:58;;;;;;;41.25;17.95;;;3.60;99.90;;;;;;5057031;28;20388;-61
2020/12/19 09:40:24;;;;;;;41.55;21.15;;;3.70;99.90;;;;;;5049090;28;20059;-60
2020/12/19 09:42:50;;;;;;;40.58;19.45;;;3.80;99.90;;;;;;5055933;28;20481;-60
2020/12/19 09:45:15;;;;;;;38.40;17.70;;;3.80;99.90;;;;;;5064856;28;20031;-60
2020/12/19 09:47:41;;;;;;;35.15;16.55;;;3.90;99.90;;;;;;5060829;28;20499;-61
2020/12/19 09:50:11;;;;;;;33.13;15.70;;;4.00;99.90;;;;;;5060207;28;20040;-58
2020/12/19 09:52:37;;;;;;;41.53;20.55;;;4.10;99.90;;;;;;5060021;28;20033;-61
2020/12/19 09:55:04;;;;;;;39.47;18.67;;;4.10;99.90;;;;;;5054214;28;20031;-60
2020/12/19 09:57:30;;;;;;;43.42;23.02;;;4.20;99.90;;;;;;5053606;28;20103;-58
2020/12/19 09:59:55;;;;;;;40.35;19.00;;;4.20;99.90;;;;;;5054816;28;20117;-61
2020/12/19 10:02:21;;;;;;;34.85;17.77;;;4.30;99.90;;;;;;5057399;28;20025;-60
2020/12/19 10:04:46;;;;;;;32.17;16.83;;;4.30;99.90;;;;;;5039140;28;20137;-60
2020/12/19 10:07:12;;;;;;;38.72;19.08;;;4.40;99.90;;;;;;5060401;28;20032;-61
2020/12/19 10:09:37;;;;;;;33.03;16.45;;;4.40;99.90;;;;;;5058669;28;20036;-60
2020/12/19 10:12:02;;;;;;;29.25;15.15;;;4.50;99.90;;;;;;5046293;28;20029;-61
2020/12/19 10:14:28;;;;;;;35.90;19.40;;;4.50;99.90;;;;;;5059909;28;20064;-60
2020/12/19 10:16:54;;;;;;;29.02;14.20;;;4.50;99.90;;;;;;5050051;28;20029;-60
2020/12/19 10:19:20;;;;;;;27.23;14.50;;;4.60;99.90;;;;;;5072874;28;20323;-60
2020/12/19 10:21:45;;;;;;;31.83;16.30;;;4.60;99.90;;;;;;5057398;28;20078;-60
2020/12/19 10:24:10;;;;;;;30.02;14.63;;;4.70;99.90;;;;;;5053725;28;20025;-60
2020/12/19 10:26:36;;;;;;;31.02;13.65;;;4.70;99.90;;;;;;5048122;28;20033;-60
2020/12/19 10:29:01;;;;;;;28.30;13.20;;;4.70;99.90;;;;;;5058226;28;20092;-60
2020/12/19 10:31:28;;;;;;;33.83;18.08;;;4.70;99.90;;;;;;5058473;28;20295;-60
2020/12/19 10:33:53;;;;;;;26.67;13.20;;;4.70;99.90;;;;;;5052525;28;20427;-59
2020/12/19 10:36:19;;;;;;;33.83;17.80;;;4.70;99.90;;;;;;5062456;28;20032;-60
2020/12/19 10:38:45;;;;;;;28.02;14.93;;;4.80;99.90;;;;;;5051075;28;20040;-61
2020/12/19 10:41:16;;;;;;;27.27;13.85;;;4.80;99.90;;;;;;5051937;28;20033;-60
2020/12/19 10:43:42;;;;;;;31.63;18.30;;;4.80;99.90;;;;;;5061956;28;20040;-60
2020/12/19 10:46:08;;;;;;;33.85;15.60;;;4.80;99.90;;;;;;5063863;28;20032;-60
2020/12/19 10:48:34;;;;;;;32.05;15.50;;;4.90;99.90;;;;;;5057161;28;20037;-60
2020/12/19 10:51:00;;;;;;;27.67;14.32;;;4.80;99.90;;;;;;5052473;28;20057;-60
2020/12/19 10:53:26;;;;;;;30.08;15.77;;;4.80;99.90;;;;;;5072453;28;20489;-60
2020/12/19 10:55:52;;;;;;;32.20;16.42;;;4.90;99.90;;;;;;5059427;28;20125;-60
2020/12/19 10:58:17;;;;;;;28.95;14.70;;;4.90;99.90;;;;;;5056006;28;20021;-61
2020/12/19 11:00:43;;;;;;;30.70;16.70;;;4.90;99.90;;;;;;5046920;28;20075;-61
2020/12/19 11:03:09;;;;;;;32.88;16.90;;;5.00;99.90;;;;;;5058896;28;20028;-60
2020/12/19 11:05:41;;;;;;;26.63;14.13;;;5.00;99.90;;;;;;5036845;28;20021;-61
2020/12/19 11:08:07;;;;;;;31.88;15.90;;;5.10;99.90;;;;;;5060174;28;20035;-60
2020/12/19 11:10:33;;;;;;;28.45;15.15;;;5.10;99.90;;;;;;5052738;28;20036;-60
2020/12/19 11:13:03;;;;;;;30.35;16.40;;;5.10;99.90;;;;;;5055798;28;20445;-61
2020/12/19 11:15:31;;;;;;;27.08;15.13;;;5.10;99.90;;;;;;5057741;28;20063;-61
2020/12/19 11:17:57;;;;;;;32.15;16.48;;;5.20;99.90;;;;;;5054515;28;20042;-60
2020/12/19 11:20:23;;;;;;;28.63;14.70;;;5.20;99.90;;;;;;5055636;28;20048;-60
2020/12/19 11:22:49;;;;;;;20.25;11.88;;;5.20;99.90;;;;;;5048705;28;20033;-60
2020/12/19 11:25:15;;;;;;;26.38;12.75;;;5.20;99.90;;;;;;5052902;28;20078;-60
2020/12/19 11:27:40;;;;;;;31.70;15.48;;;5.20;99.90;;;;;;5050961;28;20028;-61
2020/12/19 11:30:06;;;;;;;43.53;30.25;;;5.30;99.90;;;;;;5040705;28;20066;-61
2020/12/19 11:32:32;;;;;;;30.52;19.10;;;5.30;99.90;;;;;;5056217;28;20025;-63
2020/12/19 11:34:57;;;;;;;23.73;14.20;;;5.40;99.90;;;;;;5062436;28;20025;-60
2020/12/19 11:37:23;;;;;;;24.02;13.20;;;5.40;99.90;;;;;;5069476;28;20061;-61
2020/12/19 11:39:48;;;;;;;21.70;12.90;;;5.40;99.90;;;;;;5059844;28;20029;-61
2020/12/19 11:42:14;;;;;;;23.55;12.80;;;5.40;99.90;;;;;;5064885;28;20028;-61
2020/12/19 11:44:39;;;;;;;19.00;11.45;;;5.50;99.90;;;;;;5060157;28;20127;-61
2020/12/19 11:47:05;;;;;;;21.55;11.82;;;5.50;99.90;;;;;;5061489;28;20029;-61
2020/12/19 11:49:30;;;;;;;23.05;12.57;;;5.60;99.90;;;;;;5057565;28;20053;-61
2020/12/19 11:51:59;;;;;;;22.10;11.68;;;5.60;99.90;;;;;;5080563;28;20064;-61
2020/12/19 11:54:25;;;;;;;22.23;13.27;;;5.60;99.90;;;;;;5054188;28;20512;-61
2020/12/19 11:56:51;;;;;;;26.75;15.70;;;5.60;99.90;;;;;;5054932;28;20043;-61
2020/12/19 11:59:16;;;;;;;23.13;13.05;;;5.60;99.90;;;;;;5051467;28;20632;-61
2020/12/19 12:01:42;;;;;;;25.30;13.52;;;5.70;99.90;;;;;;5055808;28;20046;-61
2020/12/19 12:04:07;;;;;;;25.63;13.70;;;5.70;99.90;;;;;;5059337;28;20051;-61
2020/12/19 12:06:33;;;;;;;24.23;12.85;;;5.80;99.90;;;;;;5055037;28;20033;-61
2020/12/19 12:09:01;;;;;;;23.92;13.10;;;5.80;99.90;;;;;;5052506;28;20043;-61
2020/12/19 12:11:27;;;;;;;25.90;14.80;;;5.80;99.90;;;;;;5057033;28;20018;-61
2020/12/19 12:13:54;;;;;;;26.40;15.48;;;5.80;99.90;;;;;;5057734;28;20081;-61
2020/12/19 12:16:19;;;;;;;22.05;12.57;;;5.80;99.90;;;;;;5065721;28;20017;-61
2020/12/19 12:18:45;;;;;;;23.10;11.07;;;5.90;99.90;;;;;;5064872;28;20060;-61
2020/12/19 12:21:11;;;;;;;20.42;11.18;;;5.80;99.90;;;;;;5054929;28;20116;-60
2020/12/19 12:23:36;;;;;;;21.85;12.65;;;5.90;99.90;;;;;;5061229;28;20038;-61
2020/12/19 12:26:02;;;;;;;22.88;11.77;;;5.80;99.90;;;;;;5064021;28;20568;-61
2020/12/19 12:28:27;;;;;;;20.63;11.43;;;5.90;99.90;;;;;;5058056;28;20032;-61
2020/12/19 12:30:53;;;;;;;22.50;12.68;;;5.90;99.90;;;;;;5063100;28;20029;-61
2020/12/19 12:33:18;;;;;;;20.80;11.68;;;5.90;99.90;;;;;;5063410;28;20029;-61
2020/12/19 12:35:44;;;;;;;19.95;11.40;;;6.00;99.90;;;;;;5055480;28;20037;-61